ADDS METAR Data INFO
IDs: Format: Raw Decoded Include TAF

Data at: 0354 UTC 20 Feb 2018

KVNY 200351Z 32011G20KT 10SM CLR 08/M08 A2996 RMK AO2 SLP146 T00831078
KVNY 200251Z 35014KT 10SM CLR 08/M07 A2995 RMK AO2 SLP141 T00831072 53021
KVNY 200151Z 01015G22KT 10SM CLR 09/M08 A2992 RMK AO2 PK WND 35027/0115 SLP133 T00891078
KVNY 200051Z 36015G28KT 10SM SCT090 11/M08 A2990 RMK AO2 PK WND 34029/2358 SLP122 T01061083
KVNY 192358Z 35020G29KT 10SM SCT090 11/M08 A2989 RMK AO2 PK WND 34029/2358 T01061083
KVNY 192351Z 35019G30KT 10SM OVC090 11/M09 A2988 RMK AO2 PK WND 36030/2347 SLP118 T01061094 10133 20100 51008
KVNY 192251Z 36015KT 10SM SCT080 BKN100 11/M07 A2987 RMK AO2 WSHFT 2226 SLP113 T01111067
KVNY 192246Z 35014G22KT 10SM SCT080 BKN100 11/M07 A2987 RMK AO2 WSHFT 2226
KVNY 192151Z 34015G24KT 10SM OVC085 13/M09 A2986 RMK AO2 SLP108 T01331089
KVNY 192051Z 27011G21KT 240V300 10SM BKN060 13/M07 A2986 RMK AO2 SLP109 T01331072 58023
KVNY 192027Z 27013G22KT 10SM BKN040 BKN100 13/M08 A2987 RMK AO2 T01331083
KVNY 191951Z COR 25007KT 200V340 10SM SCT040 13/M08 A2989 RMK AO2 SLP118 T01281083
KVNY 191851Z VRB04KT 10SM FEW040 12/M07 A2992 RMK AO2 SLP129 T01171072
KVNY 191751Z COR 36008KT 10SM FEW030 10/M07 A2993 RMK AO2 SLP133 T01001067 10106 20067 51017
KVNY 191651Z 01012KT 10SM CLR 09/M06 A2992 RMK AO2 SLP130 T00941056
KVNY 191551Z 36015KT 10SM FEW025 08/M06 A2990 RMK AO2 SLP125 T00781061
KVNY 191451Z 36016G22KT 10SM FEW040 07/M06 A2988 RMK AO2 SLP116 T00671056 51023
KVNY 191351Z 35015G22KT 10SM CLR 07/M06 A2986 RMK AO2 SLP110 T00721061
KVNY 191251Z AUTO 36013G31KT 10SM BKN060 08/M06 A2984 RMK AO2 PK WND 01031/1244 SLP101 T00831061
KVNY 191151Z AUTO 36018G28KT 10SM BKN047 OVC060 09/M05 A2981 RMK AO2 PK WND 35028/1149 SLP090 T00941050 10117 20083 58006
KVNY 191051Z AUTO 34010G19KT 10SM SCT038 09/M02 A2982 RMK AO2 SLP093 T00941017
KVNY 190958Z AUTO 00000KT 10SM SCT025 OVC033 09/06 A2982 RMK AO2 T00940056
KVNY 190951Z AUTO 00000KT 10SM BKN025 OVC031 09/06 A2982 RMK AO2 SLP095 T00940056
KVNY 190939Z AUTO 00000KT 10SM BKN025 BKN049 09/06 A2982 RMK AO2 T00940061
KVNY 190851Z AUTO 30003KT 10SM CLR 09/06 A2983 RMK AO2 SLP096 T00890061 56011
KVNY 190751Z AUTO 00000KT 10SM CLR 10/07 A2983 RMK AO2 SLP098 T01000067 402000067
KVNY 190651Z AUTO 18004KT 10SM CLR 10/08 A2985 RMK AO2 SLP102 T01000078
KVNY 190636Z 18004KT 10SM FEW028 11/08 A2985 RMK AO2 T01060078
KVNY 190551Z COR 14006KT 10SM BKN026 12/09 A2986 RMK AO2 SLP107 T01170089 10178 20106 58004
KVNY 190451Z 13004KT 10SM BKN023 11/08 A2987 RMK AO2 SLP112 T01110083
KVNY 190351Z COR 15004KT 10SM FEW035 11/08 A2987 RMK AO2 SLP112 T01110083
KVNY 190251Z 14006KT 10SM CLR 12/07 A2987 RMK AO2 SLP114 T01170067 53002
KVNY 190151Z COR 15006KT 10SM EFW080 13/06 A2987 RMK AO2 SLP111 T01330056
KVNY 190051Z 15009KT 10SM CLR 16/04 A2987 RMK AO2 SLP112 T01560039
KVNY 182351Z 15011KT 10SM CLR 18/00 A2987 RMK AO2 SLP110 T01780000 10200 20167 56017
KVNY 182251Z 15013KT 10SM CLR 18/M03 A2988 RMK AO2 SLP113 T01831033
KVNY 182151Z 16013G18KT 10SM CLR 19/M03 A2989 RMK AO2 SLP118 T01891033
KVNY 182051Z 16010KT 10SM CLR 19/M03 A2992 RMK AO2 SLP126 T01891028 58024
KVNY 181951Z 13007KT 10SM CLR 19/M01 A2995 RMK AO2 SLP139 T01891006
KVNY 181851Z 14008KT 10SM CLR 18/01 A2998 RMK AO2 SLP147 T01830011
KVNY 181751Z 11005KT 10SM CLR 17/04 A2999 RMK AO2 SLP151 T01670039 10167 20067 50002
KVNY 181651Z 00000KT 10SM CLR 13/01 A2999 RMK AO2 SLP153 T01330011